2.9C
пасмурно
пасмурно
Дата и времяТемператураДавление, мм рт.ст.Влажность, %Осадки
МинимумМаксимум
20.05.2024 08:003.09C4.73C76259облачно с прояснениями
20.05.2024 11:008.2C11.16C76246облачно с прояснениями
20.05.2024 14:0014.25C14.25C76138небольшая облачность
20.05.2024 17:0015.58C15.58C76039ясно
20.05.2024 20:0012.7C12.7C76053ясно
20.05.2024 23:009.45C9.45C76060ясно
21.05.2024 02:007.24C7.24C76071ясно
21.05.2024 05:007.8C7.8C76069ясно
21.05.2024 08:0013.14C13.14C75949ясно
21.05.2024 11:0016.58C16.58C75836ясно
21.05.2024 14:0018.35C18.35C75633ясно
21.05.2024 17:0018.36C18.36C75433ясно
21.05.2024 20:0014.46C14.46C75346переменная облачность
21.05.2024 23:009.82C9.82C75269небольшая облачность
22.05.2024 02:0010.06C10.06C75176небольшой дождь
22.05.2024 05:004.37C4.37C75374пасмурно
22.05.2024 08:003.48C3.48C75663пасмурно
22.05.2024 11:004.43C4.43C75857пасмурно
22.05.2024 14:007.53C7.53C75936пасмурно
22.05.2024 17:008.84C8.84C75927облачно с прояснениями
22.05.2024 20:007.13C7.13C75941переменная облачность
22.05.2024 23:004.14C4.14C75980небольшой дождь
23.05.2024 02:003.13C3.13C75996небольшой дождь
23.05.2024 05:001.58C1.58C75899снег
23.05.2024 08:000.92C0.92C756100снег
23.05.2024 11:001.74C1.74C75793снег
23.05.2024 14:006.04C6.04C75751небольшой дождь
23.05.2024 17:006.16C6.16C75846небольшой дождь
23.05.2024 20:002.91C2.91C75960небольшая облачность
23.05.2024 23:000.17C0.17C76078переменная облачность
24.05.2024 02:00-0.41C-0.41C76184облачно с прояснениями
24.05.2024 05:000.97C0.97C76279облачно с прояснениями
24.05.2024 08:004.07C4.07C76257небольшой снег
24.05.2024 11:005.43C5.43C76251небольшой дождь
24.05.2024 14:006.25C6.25C76251небольшой дождь
24.05.2024 17:005.8C5.8C76253небольшой дождь
24.05.2024 20:003.77C3.77C76268переменная облачность
24.05.2024 23:001.24C1.24C76274небольшой снег
25.05.2024 02:000.26C0.26C76169пасмурно
25.05.2024 05:001.73C1.73C76070облачно с прояснениями
Дата и время наблюдения: 20.05.2024 05:36:41